sensor_id;sensor_type;location;lat;lon;timestamp;temperature;humidity
14172;DHT22;7165;52.388;4.928;2023-01-05T00:00:52;11.10;99.90
14172;DHT22;7165;52.388;4.928;2023-01-05T00:03:18;11.10;99.90
14172;DHT22;7165;52.388;4.928;2023-01-05T00:05:45;11.10;99.90
14172;DHT22;7165;52.388;4.928;2023-01-05T00:08:12;11.10;99.90
14172;DHT22;7165;52.388;4.928;2023-01-05T00:10:40;11.10;99.90
14172;DHT22;7165;52.388;4.928;2023-01-05T00:13:24;11.10;99.90
14172;DHT22;7165;52.388;4.928;2023-01-05T00:16:11;11.20;99.90
14172;DHT22;7165;52.388;4.928;2023-01-05T00:18:55;11.20;99.90
14172;DHT22;7165;52.388;4.928;2023-01-05T00:21:39;11.20;99.90
14172;DHT22;7165;52.388;4.928;2023-01-05T00:24:23;11.20;99.90
14172;DHT22;7165;52.388;4.928;2023-01-05T00:26:51;11.20;99.90
14172;DHT22;7165;52.388;4.928;2023-01-05T00:29:18;11.20;99.90
14172;DHT22;7165;52.388;4.928;2023-01-05T00:31:45;11.20;99.90
14172;DHT22;7165;52.388;4.928;2023-01-05T00:34:11;11.10;99.90
14172;DHT22;7165;52.388;4.928;2023-01-05T00:36:38;11.10;99.90
14172;DHT22;7165;52.388;4.928;2023-01-05T00:39:05;11.10;99.90
14172;DHT22;7165;52.388;4.928;2023-01-05T00:41:32;11.10;99.90
14172;DHT22;7165;52.388;4.928;2023-01-05T00:44:00;11.10;99.90
14172;DHT22;7165;52.388;4.928;2023-01-05T00:46:27;11.10;99.90
14172;DHT22;7165;52.388;4.928;2023-01-05T00:48:53;11.10;99.90
14172;DHT22;7165;52.388;4.928;2023-01-05T00:51:20;11.10;99.90
14172;DHT22;7165;52.388;4.928;2023-01-05T00:53:47;11.10;99.90
14172;DHT22;7165;52.388;4.928;2023-01-05T00:56:13;11.00;99.90
14172;DHT22;7165;52.388;4.928;2023-01-05T00:58:40;11.00;99.90
14172;DHT22;7165;52.388;4.928;2023-01-05T01:01:10;11.00;99.90
14172;DHT22;7165;52.388;4.928;2023-01-05T01:03:37;11.00;99.90
14172;DHT22;7165;52.388;4.928;2023-01-05T01:06:04;11.00;99.90
14172;DHT22;7165;52.388;4.928;2023-01-05T01:08:31;11.00;99.90
14172;DHT22;7165;52.388;4.928;2023-01-05T01:11:03;11.00;99.90
14172;DHT22;7165;52.388;4.928;2023-01-05T01:13:30;11.00;99.90
14172;DHT22;7165;52.388;4.928;2023-01-05T01:15:57;11.00;99.90
14172;DHT22;7165;52.388;4.928;2023-01-05T01:18:25;11.00;99.90
14172;DHT22;7165;52.388;4.928;2023-01-05T01:20:52;11.00;99.90
14172;DHT22;7165;52.388;4.928;2023-01-05T01:23:18;11.00;99.90
14172;DHT22;7165;52.388;4.928;2023-01-05T01:25:45;11.00;99.90
14172;DHT22;7165;52.388;4.928;2023-01-05T01:28:11;11.00;99.90
14172;DHT22;7165;52.388;4.928;2023-01-05T01:30:38;11.00;99.90
14172;DHT22;7165;52.388;4.928;2023-01-05T01:33:05;11.00;99.90
14172;DHT22;7165;52.388;4.928;2023-01-05T01:35:34;11.00;99.90
14172;DHT22;7165;52.388;4.928;2023-01-05T01:38:02;11.00;99.90
14172;DHT22;7165;52.388;4.928;2023-01-05T01:40:29;11.00;99.90
14172;DHT22;7165;52.388;4.928;2023-01-05T01:42:56;11.00;99.90
14172;DHT22;7165;52.388;4.928;2023-01-05T01:45:23;11.00;99.90
14172;DHT22;7165;52.388;4.928;2023-01-05T01:47:53;11.00;99.90
14172;DHT22;7165;52.388;4.928;2023-01-05T01:50:24;11.10;99.90
14172;DHT22;7165;52.388;4.928;2023-01-05T01:52:55;11.00;99.90
14172;DHT22;7165;52.388;4.928;2023-01-05T01:55:22;11.00;99.90
14172;DHT22;7165;52.388;4.928;2023-01-05T01:57:50;11.00;99.90
14172;DHT22;7165;52.388;4.928;2023-01-05T02:00:18;11.00;99.90
14172;DHT22;7165;52.388;4.928;2023-01-05T02:02:47;11.10;99.90
14172;DHT22;7165;52.388;4.928;2023-01-05T02:05:16;11.10;99.90
14172;DHT22;7165;52.388;4.928;2023-01-05T02:07:45;11.10;99.90
14172;DHT22;7165;52.388;4.928;2023-01-05T02:10:17;11.10;99.90
14172;DHT22;7165;52.388;4.928;2023-01-05T02:12:57;11.10;99.90
14172;DHT22;7165;52.388;4.928;2023-01-05T02:15:38;11.10;99.90
14172;DHT22;7165;52.388;4.928;2023-01-05T02:18:19;11.10;99.90
14172;DHT22;7165;52.388;4.928;2023-01-05T02:20:58;11.10;99.90
14172;DHT22;7165;52.388;4.928;2023-01-05T02:29:48;11.10;99.90
14172;DHT22;7165;52.388;4.928;2023-01-05T02:32:21;11.20;99.90
14172;DHT22;7165;52.388;4.928;2023-01-05T02:34:59;11.20;99.90
14172;DHT22;7165;52.388;4.928;2023-01-05T02:37:34;11.20;99.90
14172;DHT22;7165;52.388;4.928;2023-01-05T02:40:07;11.20;99.90
14172;DHT22;7165;52.388;4.928;2023-01-05T02:42:37;11.20;99.90
14172;DHT22;7165;52.388;4.928;2023-01-05T02:45:06;11.20;99.90
14172;DHT22;7165;52.388;4.928;2023-01-05T02:47:39;11.20;99.90
14172;DHT22;7165;52.388;4.928;2023-01-05T02:50:11;11.20;99.90
14172;DHT22;7165;52.388;4.928;2023-01-05T02:52:44;11.20;99.90
14172;DHT22;7165;52.388;4.928;2023-01-05T02:55:15;11.20;99.90
14172;DHT22;7165;52.388;4.928;2023-01-05T02:57:47;11.20;99.90
14172;DHT22;7165;52.388;4.928;2023-01-05T03:00:19;11.20;99.90
14172;DHT22;7165;52.388;4.928;2023-01-05T03:02:51;11.20;99.90
14172;DHT22;7165;52.388;4.928;2023-01-05T03:05:22;11.20;99.90
14172;DHT22;7165;52.388;4.928;2023-01-05T03:07:52;11.20;99.90
14172;DHT22;7165;52.388;4.928;2023-01-05T03:10:34;11.30;99.90
14172;DHT22;7165;52.388;4.928;2023-01-05T03:13:21;11.30;99.90
14172;DHT22;7165;52.388;4.928;2023-01-05T03:16:06;11.30;99.90
14172;DHT22;7165;52.388;4.928;2023-01-05T03:18:36;11.30;99.90
14172;DHT22;7165;52.388;4.928;2023-01-05T03:21:24;11.20;99.90
14172;DHT22;7165;52.388;4.928;2023-01-05T03:23:53;11.20;99.90
14172;DHT22;7165;52.388;4.928;2023-01-05T03:26:38;11.10;99.90
14172;DHT22;7165;52.388;4.928;2023-01-05T03:29:22;11.20;99.90
14172;DHT22;7165;52.388;4.928;2023-01-05T03:32:11;11.20;99.90
14172;DHT22;7165;52.388;4.928;2023-01-05T03:35:02;11.20;99.90
14172;DHT22;7165;52.388;4.928;2023-01-05T03:37:51;11.20;99.90
14172;DHT22;7165;52.388;4.928;2023-01-05T03:40:23;11.20;99.90
14172;DHT22;7165;52.388;4.928;2023-01-05T03:42:51;11.20;99.90
14172;DHT22;7165;52.388;4.928;2023-01-05T03:45:20;11.20;99.90
14172;DHT22;7165;52.388;4.928;2023-01-05T03:47:47;11.20;99.90
14172;DHT22;7165;52.388;4.928;2023-01-05T03:50:16;11.20;99.90
14172;DHT22;7165;52.388;4.928;2023-01-05T03:52:43;11.20;99.90
14172;DHT22;7165;52.388;4.928;2023-01-05T03:55:09;11.20;99.90
14172;DHT22;7165;52.388;4.928;2023-01-05T03:57:36;11.20;99.90
14172;DHT22;7165;52.388;4.928;2023-01-05T04:00:04;11.20;99.90
14172;DHT22;7165;52.388;4.928;2023-01-05T04:02:30;11.20;99.90
14172;DHT22;7165;52.388;4.928;2023-01-05T04:04:57;11.20;99.90
14172;DHT22;7165;52.388;4.928;2023-01-05T04:07:25;11.20;99.90
14172;DHT22;7165;52.388;4.928;2023-01-05T04:09:52;11.20;99.90
14172;DHT22;7165;52.388;4.928;2023-01-05T04:12:18;11.20;99.90
14172;DHT22;7165;52.388;4.928;2023-01-05T04:14:47;11.20;99.90
14172;DHT22;7165;52.388;4.928;2023-01-05T04:17:14;11.20;99.90
14172;DHT22;7165;52.388;4.928;2023-01-05T04:19:40;11.20;99.90
14172;DHT22;7165;52.388;4.928;2023-01-05T04:22:07;11.20;99.90
14172;DHT22;7165;52.388;4.928;2023-01-05T04:24:35;11.20;99.90
14172;DHT22;7165;52.388;4.928;2023-01-05T04:27:02;11.20;99.90
14172;DHT22;7165;52.388;4.928;2023-01-05T04:29:29;11.20;99.90
14172;DHT22;7165;52.388;4.928;2023-01-05T04:31:55;11.20;99.90
14172;DHT22;7165;52.388;4.928;2023-01-05T04:34:22;11.10;99.90
14172;DHT22;7165;52.388;4.928;2023-01-05T04:36:49;11.10;99.90
14172;DHT22;7165;52.388;4.928;2023-01-05T04:39:15;11.10;99.90
14172;DHT22;7165;52.388;4.928;2023-01-05T04:41:43;11.10;99.90
14172;DHT22;7165;52.388;4.928;2023-01-05T04:44:10;11.10;99.90
14172;DHT22;7165;52.388;4.928;2023-01-05T04:46:37;11.10;99.90
14172;DHT22;7165;52.388;4.928;2023-01-05T04:49:03;11.10;99.90
14172;DHT22;7165;52.388;4.928;2023-01-05T04:51:30;11.20;99.90
14172;DHT22;7165;52.388;4.928;2023-01-05T04:53:57;11.20;99.90
14172;DHT22;7165;52.388;4.928;2023-01-05T04:56:23;11.20;99.90
14172;DHT22;7165;52.388;4.928;2023-01-05T04:58:51;11.20;99.90
14172;DHT22;7165;52.388;4.928;2023-01-05T05:01:18;11.10;99.90
14172;DHT22;7165;52.388;4.928;2023-01-05T05:03:45;11.10;99.90
14172;DHT22;7165;52.388;4.928;2023-01-05T05:06:11;11.10;99.90
14172;DHT22;7165;52.388;4.928;2023-01-05T05:08:38;11.20;99.90
14172;DHT22;7165;52.388;4.928;2023-01-05T05:11:05;11.10;99.90
14172;DHT22;7165;52.388;4.928;2023-01-05T05:13:31;11.10;99.90
14172;DHT22;7165;52.388;4.928;2023-01-05T05:16:00;11.10;99.90
14172;DHT22;7165;52.388;4.928;2023-01-05T05:18:26;11.10;99.90
14172;DHT22;7165;52.388;4.928;2023-01-05T05:20:53;11.10;99.90
14172;DHT22;7165;52.388;4.928;2023-01-05T05:23:20;11.10;99.90
14172;DHT22;7165;52.388;4.928;2023-01-05T05:25:48;11.00;99.90
14172;DHT22;7165;52.388;4.928;2023-01-05T05:28:15;11.00;99.90
14172;DHT22;7165;52.388;4.928;2023-01-05T05:30:42;11.00;99.90
14172;DHT22;7165;52.388;4.928;2023-01-05T05:33:10;11.00;99.90
14172;DHT22;7165;52.388;4.928;2023-01-05T05:35:37;11.00;99.90
14172;DHT22;7165;52.388;4.928;2023-01-05T05:38:03;11.00;99.90
14172;DHT22;7165;52.388;4.928;2023-01-05T05:40:30;11.00;99.90
14172;DHT22;7165;52.388;4.928;2023-01-05T05:42:56;11.00;99.90
14172;DHT22;7165;52.388;4.928;2023-01-05T05:45:23;11.00;99.90
14172;DHT22;7165;52.388;4.928;2023-01-05T05:47:50;11.00;99.90
14172;DHT22;7165;52.388;4.928;2023-01-05T05:50:18;11.00;99.90
14172;DHT22;7165;52.388;4.928;2023-01-05T05:52:45;11.10;99.90
14172;DHT22;7165;52.388;4.928;2023-01-05T05:55:11;11.10;99.90
14172;DHT22;7165;52.388;4.928;2023-01-05T05:57:38;11.10;99.90
14172;DHT22;7165;52.388;4.928;2023-01-05T06:00:06;11.10;99.90
14172;DHT22;7165;52.388;4.928;2023-01-05T06:02:32;11.10;99.90
14172;DHT22;7165;52.388;4.928;2023-01-05T06:04:59;11.10;99.90
14172;DHT22;7165;52.388;4.928;2023-01-05T06:07:27;11.00;99.90
14172;DHT22;7165;52.388;4.928;2023-01-05T06:09:54;11.00;99.90
14172;DHT22;7165;52.388;4.928;2023-01-05T06:12:20;11.00;99.90
14172;DHT22;7165;52.388;4.928;2023-01-05T06:14:47;11.10;99.90
14172;DHT22;7165;52.388;4.928;2023-01-05T06:17:14;11.10;99.90
14172;DHT22;7165;52.388;4.928;2023-01-05T06:19:40;11.10;99.90
14172;DHT22;7165;52.388;4.928;2023-01-05T06:22:07;11.10;99.90
14172;DHT22;7165;52.388;4.928;2023-01-05T06:24:42;11.10;99.90
14172;DHT22;7165;52.388;4.928;2023-01-05T06:27:09;11.10;99.90
14172;DHT22;7165;52.388;4.928;2023-01-05T06:29:36;11.10;99.90
14172;DHT22;7165;52.388;4.928;2023-01-05T06:32:03;11.10;99.90
14172;DHT22;7165;52.388;4.928;2023-01-05T06:34:30;11.10;99.90
14172;DHT22;7165;52.388;4.928;2023-01-05T06:36:57;11.10;99.90
14172;DHT22;7165;52.388;4.928;2023-01-05T06:39:23;11.10;99.90
14172;DHT22;7165;52.388;4.928;2023-01-05T06:41:51;11.10;99.90
14172;DHT22;7165;52.388;4.928;2023-01-05T06:44:18;11.00;99.90
14172;DHT22;7165;52.388;4.928;2023-01-05T06:46:45;11.00;99.90
14172;DHT22;7165;52.388;4.928;2023-01-05T06:49:11;11.00;99.90
14172;DHT22;7165;52.388;4.928;2023-01-05T06:51:39;11.00;99.90
14172;DHT22;7165;52.388;4.928;2023-01-05T06:54:06;11.00;99.90
14172;DHT22;7165;52.388;4.928;2023-01-05T06:56:33;11.00;99.90
14172;DHT22;7165;52.388;4.928;2023-01-05T06:59:01;11.00;99.90
14172;DHT22;7165;52.388;4.928;2023-01-05T07:01:27;11.00;99.90
14172;DHT22;7165;52.388;4.928;2023-01-05T07:03:54;11.00;99.90
14172;DHT22;7165;52.388;4.928;2023-01-05T07:06:21;11.00;99.90
14172;DHT22;7165;52.388;4.928;2023-01-05T07:08:47;11.00;99.90
14172;DHT22;7165;52.388;4.928;2023-01-05T07:11:14;11.00;99.90
14172;DHT22;7165;52.388;4.928;2023-01-05T07:13:41;11.00;99.90
14172;DHT22;7165;52.388;4.928;2023-01-05T07:16:09;11.00;99.90
14172;DHT22;7165;52.388;4.928;2023-01-05T07:18:36;10.90;99.90
14172;DHT22;7165;52.388;4.928;2023-01-05T07:21:02;10.90;99.90
14172;DHT22;7165;52.388;4.928;2023-01-05T07:23:29;10.90;99.90
14172;DHT22;7165;52.388;4.928;2023-01-05T07:25:59;10.90;99.90
14172;DHT22;7165;52.388;4.928;2023-01-05T07:28:26;10.90;99.90
14172;DHT22;7165;52.388;4.928;2023-01-05T07:30:52;10.90;99.90
14172;DHT22;7165;52.388;4.928;2023-01-05T07:33:20;10.90;99.90
14172;DHT22;7165;52.388;4.928;2023-01-05T07:35:47;10.90;99.90
14172;DHT22;7165;52.388;4.928;2023-01-05T07:38:14;10.90;99.90
14172;DHT22;7165;52.388;4.928;2023-01-05T07:40:40;10.90;99.90
14172;DHT22;7165;52.388;4.928;2023-01-05T07:43:07;10.90;99.90
14172;DHT22;7165;52.388;4.928;2023-01-05T07:45:34;10.90;99.90
14172;DHT22;7165;52.388;4.928;2023-01-05T07:48:01;10.90;99.90
14172;DHT22;7165;52.388;4.928;2023-01-05T07:50:29;10.90;99.90
14172;DHT22;7165;52.388;4.928;2023-01-05T07:52:57;10.90;99.90
14172;DHT22;7165;52.388;4.928;2023-01-05T07:55:24;10.90;99.90
14172;DHT22;7165;52.388;4.928;2023-01-05T07:57:51;10.90;99.90
14172;DHT22;7165;52.388;4.928;2023-01-05T08:00:18;10.90;99.90
14172;DHT22;7165;52.388;4.928;2023-01-05T08:02:45;10.90;99.90
14172;DHT22;7165;52.388;4.928;2023-01-05T08:05:11;10.90;99.90
14172;DHT22;7165;52.388;4.928;2023-01-05T08:07:39;10.90;99.90
14172;DHT22;7165;52.388;4.928;2023-01-05T08:10:06;10.90;99.90
14172;DHT22;7165;52.388;4.928;2023-01-05T08:12:51;11.00;99.90
14172;DHT22;7165;52.388;4.928;2023-01-05T08:15:38;11.00;99.90
14172;DHT22;7165;52.388;4.928;2023-01-05T08:18:05;10.90;99.90
14172;DHT22;7165;52.388;4.928;2023-01-05T08:20:32;10.90;99.90
14172;DHT22;7165;52.388;4.928;2023-01-05T08:23:00;10.90;99.90
14172;DHT22;7165;52.388;4.928;2023-01-05T08:25:26;10.90;99.90
14172;DHT22;7165;52.388;4.928;2023-01-05T08:27:53;10.90;99.90
14172;DHT22;7165;52.388;4.928;2023-01-05T08:30:20;10.90;99.90
14172;DHT22;7165;52.388;4.928;2023-01-05T08:32:46;10.90;99.90
14172;DHT22;7165;52.388;4.928;2023-01-05T08:35:13;11.00;99.90
14172;DHT22;7165;52.388;4.928;2023-01-05T08:37:43;11.00;99.90
14172;DHT22;7165;52.388;4.928;2023-01-05T08:40:12;11.00;99.90
14172;DHT22;7165;52.388;4.928;2023-01-05T08:42:38;11.00;99.90
14172;DHT22;7165;52.388;4.928;2023-01-05T08:45:06;11.00;99.90
14172;DHT22;7165;52.388;4.928;2023-01-05T08:47:34;10.90;99.90
14172;DHT22;7165;52.388;4.928;2023-01-05T08:50:01;10.90;99.90
14172;DHT22;7165;52.388;4.928;2023-01-05T08:52:27;10.90;99.90
14172;DHT22;7165;52.388;4.928;2023-01-05T08:54:54;10.90;99.90
14172;DHT22;7165;52.388;4.928;2023-01-05T08:57:22;10.90;99.90
14172;DHT22;7165;52.388;4.928;2023-01-05T08:59:49;11.00;99.90
14172;DHT22;7165;52.388;4.928;2023-01-05T09:02:15;11.00;99.90
14172;DHT22;7165;52.388;4.928;2023-01-05T09:04:42;11.00;99.90
14172;DHT22;7165;52.388;4.928;2023-01-05T09:07:09;11.00;99.90
14172;DHT22;7165;52.388;4.928;2023-01-05T09:09:35;11.00;99.90
14172;DHT22;7165;52.388;4.928;2023-01-05T09:12:03;11.00;99.90
14172;DHT22;7165;52.388;4.928;2023-01-05T09:14:44;11.00;99.90
14172;DHT22;7165;52.388;4.928;2023-01-05T09:17:11;11.00;99.90
14172;DHT22;7165;52.388;4.928;2023-01-05T09:19:37;11.00;99.90
14172;DHT22;7165;52.388;4.928;2023-01-05T09:22:04;11.00;99.90
14172;DHT22;7165;52.388;4.928;2023-01-05T09:24:31;11.10;99.90
14172;DHT22;7165;52.388;4.928;2023-01-05T09:26:57;11.10;99.90
14172;DHT22;7165;52.388;4.928;2023-01-05T09:29:24;11.10;99.90
14172;DHT22;7165;52.388;4.928;2023-01-05T09:31:53;11.00;99.90
14172;DHT22;7165;52.388;4.928;2023-01-05T09:34:21;11.10;99.90
14172;DHT22;7165;52.388;4.928;2023-01-05T09:36:47;11.10;99.90
14172;DHT22;7165;52.388;4.928;2023-01-05T09:39:14;11.10;99.90
14172;DHT22;7165;52.388;4.928;2023-01-05T09:41:43;11.10;99.90
14172;DHT22;7165;52.388;4.928;2023-01-05T09:44:25;11.10;99.90
14172;DHT22;7165;52.388;4.928;2023-01-05T09:46:55;11.10;99.90
14172;DHT22;7165;52.388;4.928;2023-01-05T09:49:23;11.10;99.90
14172;DHT22;7165;52.388;4.928;2023-01-05T09:51:55;11.20;99.90
14172;DHT22;7165;52.388;4.928;2023-01-05T09:54:26;11.20;99.90
14172;DHT22;7165;52.388;4.928;2023-01-05T09:56:54;11.20;99.90
14172;DHT22;7165;52.388;4.928;2023-01-05T09:59:24;11.20;99.90
14172;DHT22;7165;52.388;4.928;2023-01-05T10:01:55;11.30;99.90
14172;DHT22;7165;52.388;4.928;2023-01-05T10:04:26;11.30;99.90
14172;DHT22;7165;52.388;4.928;2023-01-05T10:06:58;11.30;99.90
14172;DHT22;7165;52.388;4.928;2023-01-05T10:09:29;11.30;99.90
14172;DHT22;7165;52.388;4.928;2023-01-05T10:11:58;11.30;99.90
14172;DHT22;7165;52.388;4.928;2023-01-05T10:14:47;11.30;99.90
14172;DHT22;7165;52.388;4.928;2023-01-05T10:17:18;11.30;99.90
14172;DHT22;7165;52.388;4.928;2023-01-05T10:19:46;11.40;99.90
14172;DHT22;7165;52.388;4.928;2023-01-05T10:22:24;11.30;99.90
14172;DHT22;7165;52.388;4.928;2023-01-05T10:24:58;11.40;99.90
14172;DHT22;7165;52.388;4.928;2023-01-05T10:27:30;11.30;99.90
14172;DHT22;7165;52.388;4.928;2023-01-05T10:30:04;11.40;99.90
14172;DHT22;7165;52.388;4.928;2023-01-05T10:32:44;11.40;99.90
14172;DHT22;7165;52.388;4.928;2023-01-05T10:35:27;11.40;99.90
14172;DHT22;7165;52.388;4.928;2023-01-05T10:38:05;11.40;99.90
14172;DHT22;7165;52.388;4.928;2023-01-05T10:40:45;11.40;99.90
14172;DHT22;7165;52.388;4.928;2023-01-05T10:43:32;11.40;99.90
14172;DHT22;7165;52.388;4.928;2023-01-05T10:46:01;11.50;99.90
14172;DHT22;7165;52.388;4.928;2023-01-05T10:48:33;11.50;99.90
14172;DHT22;7165;52.388;4.928;2023-01-05T10:51:01;11.50;99.90
14172;DHT22;7165;52.388;4.928;2023-01-05T10:53:30;11.50;99.90
14172;DHT22;7165;52.388;4.928;2023-01-05T10:56:02;11.50;99.90
14172;DHT22;7165;52.388;4.928;2023-01-05T10:58:31;11.50;99.90
14172;DHT22;7165;52.388;4.928;2023-01-05T11:01:00;11.50;99.90
14172;DHT22;7165;52.388;4.928;2023-01-05T11:03:39;11.50;99.90
14172;DHT22;7165;52.388;4.928;2023-01-05T11:06:07;11.50;99.90
14172;DHT22;7165;52.388;4.928;2023-01-05T11:08:35;11.60;99.90
14172;DHT22;7165;52.388;4.928;2023-01-05T11:11:04;11.60;99.90
14172;DHT22;7165;52.388;4.928;2023-01-05T11:13:32;11.60;99.90
14172;DHT22;7165;52.388;4.928;2023-01-05T11:16:05;11.60;99.90
14172;DHT22;7165;52.388;4.928;2023-01-05T11:18:38;11.60;99.90
14172;DHT22;7165;52.388;4.928;2023-01-05T11:21:12;11.60;99.90
14172;DHT22;7165;52.388;4.928;2023-01-05T11:23:42;11.60;99.90
14172;DHT22;7165;52.388;4.928;2023-01-05T11:26:31;11.70;99.90
14172;DHT22;7165;52.388;4.928;2023-01-05T11:29:03;11.70;99.90
14172;DHT22;7165;52.388;4.928;2023-01-05T11:31:33;11.70;99.90
14172;DHT22;7165;52.388;4.928;2023-01-05T11:34:07;11.80;99.90
14172;DHT22;7165;52.388;4.928;2023-01-05T11:36:34;11.80;99.90
14172;DHT22;7165;52.388;4.928;2023-01-05T11:39:01;11.80;99.90
14172;DHT22;7165;52.388;4.928;2023-01-05T11:41:27;11.80;99.90
14172;DHT22;7165;52.388;4.928;2023-01-05T11:43:55;11.80;99.90
14172;DHT22;7165;52.388;4.928;2023-01-05T11:46:25;11.80;99.90
14172;DHT22;7165;52.388;4.928;2023-01-05T11:49:05;11.80;99.90
14172;DHT22;7165;52.388;4.928;2023-01-05T11:51:34;11.90;99.90
14172;DHT22;7165;52.388;4.928;2023-01-05T11:54:02;11.90;99.90
14172;DHT22;7165;52.388;4.928;2023-01-05T11:56:29;11.90;99.90
14172;DHT22;7165;52.388;4.928;2023-01-05T11:58:56;11.90;99.90
14172;DHT22;7165;52.388;4.928;2023-01-05T12:01:37;12.00;99.90
14172;DHT22;7165;52.388;4.928;2023-01-05T12:04:21;12.00;99.90
14172;DHT22;7165;52.388;4.928;2023-01-05T12:07:07;12.00;99.90
14172;DHT22;7165;52.388;4.928;2023-01-05T12:09:39;12.10;99.90
14172;DHT22;7165;52.388;4.928;2023-01-05T12:12:19;12.20;99.90
14172;DHT22;7165;52.388;4.928;2023-01-05T12:15:26;12.30;99.90
14172;DHT22;7165;52.388;4.928;2023-01-05T12:18:06;12.30;99.90
14172;DHT22;7165;52.388;4.928;2023-01-05T12:20:55;12.30;99.90
14172;DHT22;7165;52.388;4.928;2023-01-05T12:23:43;12.40;99.90
14172;DHT22;7165;52.388;4.928;2023-01-05T12:26:22;12.40;99.90
14172;DHT22;7165;52.388;4.928;2023-01-05T12:29:05;12.30;99.90
14172;DHT22;7165;52.388;4.928;2023-01-05T12:31:47;12.30;99.90
14172;DHT22;7165;52.388;4.928;2023-01-05T12:34:34;12.40;99.90
14172;DHT22;7165;52.388;4.928;2023-01-05T12:37:16;12.40;99.90
14172;DHT22;7165;52.388;4.928;2023-01-05T12:40:00;12.40;99.90
14172;DHT22;7165;52.388;4.928;2023-01-05T12:42:48;12.50;99.90
14172;DHT22;7165;52.388;4.928;2023-01-05T12:45:28;12.50;99.90
14172;DHT22;7165;52.388;4.928;2023-01-05T12:47:58;12.60;99.90
14172;DHT22;7165;52.388;4.928;2023-01-05T12:50:31;12.60;99.90
14172;DHT22;7165;52.388;4.928;2023-01-05T12:53:18;12.60;99.90
14172;DHT22;7165;52.388;4.928;2023-01-05T12:55:49;12.60;99.90
14172;DHT22;7165;52.388;4.928;2023-01-05T12:58:22;12.60;99.90
14172;DHT22;7165;52.388;4.928;2023-01-05T13:00:51;12.50;99.90
14172;DHT22;7165;52.388;4.928;2023-01-05T13:03:22;12.50;99.90
14172;DHT22;7165;52.388;4.928;2023-01-05T13:05:56;12.40;99.90
14172;DHT22;7165;52.388;4.928;2023-01-05T13:08:35;12.30;99.90
14172;DHT22;7165;52.388;4.928;2023-01-05T13:11:08;12.20;99.90
14172;DHT22;7165;52.388;4.928;2023-01-05T13:13:38;12.10;99.90
14172;DHT22;7165;52.388;4.928;2023-01-05T13:16:11;12.10;99.90
14172;DHT22;7165;52.388;4.928;2023-01-05T13:18:40;12.20;99.90
14172;DHT22;7165;52.388;4.928;2023-01-05T13:21:08;12.10;99.90
14172;DHT22;7165;52.388;4.928;2023-01-05T13:23:41;12.10;99.90
14172;DHT22;7165;52.388;4.928;2023-01-05T13:26:12;12.10;99.90
14172;DHT22;7165;52.388;4.928;2023-01-05T13:28:39;12.10;99.90
14172;DHT22;7165;52.388;4.928;2023-01-05T13:31:34;12.10;99.90
14172;DHT22;7165;52.388;4.928;2023-01-05T13:34:36;12.10;99.90
14172;DHT22;7165;52.388;4.928;2023-01-05T13:37:32;12.10;99.90
14172;DHT22;7165;52.388;4.928;2023-01-05T13:43:24;12.00;99.90
14172;DHT22;7165;52.388;4.928;2023-01-05T13:49:23;12.00;99.90
14172;DHT22;7165;52.388;4.928;2023-01-05T13:51:54;12.00;99.90
14172;DHT22;7165;52.388;4.928;2023-01-05T13:54:32;12.00;99.90
14172;DHT22;7165;52.388;4.928;2023-01-05T13:57:05;12.00;99.90
14172;DHT22;7165;52.388;4.928;2023-01-05T13:59:34;11.90;99.90
14172;DHT22;7165;52.388;4.928;2023-01-05T14:02:03;11.90;99.90
14172;DHT22;7165;52.388;4.928;2023-01-05T14:04:32;11.90;99.90
14172;DHT22;7165;52.388;4.928;2023-01-05T14:07:02;12.00;99.90
14172;DHT22;7165;52.388;4.928;2023-01-05T14:09:33;11.90;99.90
14172;DHT22;7165;52.388;4.928;2023-01-05T14:12:46;11.90;99.90
14172;DHT22;7165;52.388;4.928;2023-01-05T14:15:37;11.90;99.90
14172;DHT22;7165;52.388;4.928;2023-01-05T14:18:05;11.90;99.90
14172;DHT22;7165;52.388;4.928;2023-01-05T14:20:35;11.90;99.90
14172;DHT22;7165;52.388;4.928;2023-01-05T14:26:16;11.80;99.90
14172;DHT22;7165;52.388;4.928;2023-01-05T14:29:03;11.80;99.90
14172;DHT22;7165;52.388;4.928;2023-01-05T14:31:45;11.80;99.90
14172;DHT22;7165;52.388;4.928;2023-01-05T14:34:17;11.80;99.90
14172;DHT22;7165;52.388;4.928;2023-01-05T14:37:02;11.80;99.90
14172;DHT22;7165;52.388;4.928;2023-01-05T14:39:35;11.70;99.90
14172;DHT22;7165;52.388;4.928;2023-01-05T14:42:14;11.70;99.90
14172;DHT22;7165;52.388;4.928;2023-01-05T14:44:46;11.70;99.90
14172;DHT22;7165;52.388;4.928;2023-01-05T14:47:15;11.70;99.90
14172;DHT22;7165;52.388;4.928;2023-01-05T14:49:51;11.80;99.90
14172;DHT22;7165;52.388;4.928;2023-01-05T14:52:52;11.70;99.90
14172;DHT22;7165;52.388;4.928;2023-01-05T14:55:22;11.70;99.90
14172;DHT22;7165;52.388;4.928;2023-01-05T14:57:51;11.70;99.90
14172;DHT22;7165;52.388;4.928;2023-01-05T15:00:34;11.70;99.90
14172;DHT22;7165;52.388;4.928;2023-01-05T15:03:11;11.60;99.90
14172;DHT22;7165;52.388;4.928;2023-01-05T15:05:43;11.60;99.90
14172;DHT22;7165;52.388;4.928;2023-01-05T15:08:38;11.60;99.90
14172;DHT22;7165;52.388;4.928;2023-01-05T15:11:35;11.60;99.90
14172;DHT22;7165;52.388;4.928;2023-01-05T15:14:18;11.50;99.90
14172;DHT22;7165;52.388;4.928;2023-01-05T15:20:21;11.40;99.90
14172;DHT22;7165;52.388;4.928;2023-01-05T15:23:00;11.40;99.90
14172;DHT22;7165;52.388;4.928;2023-01-05T15:25:58;11.30;99.90
14172;DHT22;7165;52.388;4.928;2023-01-05T15:31:36;11.20;99.90
14172;DHT22;7165;52.388;4.928;2023-01-05T15:34:13;11.10;99.90
14172;DHT22;7165;52.388;4.928;2023-01-05T15:36:45;11.10;99.90
14172;DHT22;7165;52.388;4.928;2023-01-05T15:39:28;11.00;99.90
14172;DHT22;7165;52.388;4.928;2023-01-05T15:41:59;11.00;99.90
14172;DHT22;7165;52.388;4.928;2023-01-05T15:44:31;11.00;99.90
14172;DHT22;7165;52.388;4.928;2023-01-05T15:47:00;11.00;99.90
14172;DHT22;7165;52.388;4.928;2023-01-05T15:49:30;11.00;99.90
14172;DHT22;7165;52.388;4.928;2023-01-05T15:51:58;11.00;99.90
14172;DHT22;7165;52.388;4.928;2023-01-05T15:54:27;11.00;99.90
14172;DHT22;7165;52.388;4.928;2023-01-05T15:56:55;11.00;99.90
14172;DHT22;7165;52.388;4.928;2023-01-05T15:59:27;11.00;99.90
14172;DHT22;7165;52.388;4.928;2023-01-05T16:01:54;11.00;99.90
14172;DHT22;7165;52.388;4.928;2023-01-05T16:04:21;10.90;99.90
14172;DHT22;7165;52.388;4.928;2023-01-05T16:06:57;10.90;99.90
14172;DHT22;7165;52.388;4.928;2023-01-05T16:09:28;10.90;99.90
14172;DHT22;7165;52.388;4.928;2023-01-05T16:11:59;10.90;99.90
14172;DHT22;7165;52.388;4.928;2023-01-05T16:14:31;10.90;99.90
14172;DHT22;7165;52.388;4.928;2023-01-05T16:17:06;10.90;99.90
14172;DHT22;7165;52.388;4.928;2023-01-05T16:19:41;10.90;99.90
14172;DHT22;7165;52.388;4.928;2023-01-05T16:22:13;10.90;99.90
14172;DHT22;7165;52.388;4.928;2023-01-05T16:24:44;10.90;99.90
14172;DHT22;7165;52.388;4.928;2023-01-05T16:27:14;10.80;99.90
14172;DHT22;7165;52.388;4.928;2023-01-05T16:29:45;10.80;99.90
14172;DHT22;7165;52.388;4.928;2023-01-05T16:32:26;10.80;99.90
14172;DHT22;7165;52.388;4.928;2023-01-05T16:38:04;10.80;99.90